sensor_id;sensor_type;location;lat;lon;timestamp;P1;durP1;ratioP1;P2;durP2;ratioP2
11197;SDS011;5655;48.744;9.162;2023-03-16T00:01:37;28.33;;;19.13;;
11197;SDS011;5655;48.744;9.162;2023-03-16T00:04:03;31.70;;;19.03;;
11197;SDS011;5655;48.744;9.162;2023-03-16T00:06:28;28.37;;;19.30;;
11197;SDS011;5655;48.744;9.162;2023-03-16T00:08:54;29.83;;;21.07;;
11197;SDS011;5655;48.744;9.162;2023-03-16T00:11:23;28.33;;;19.97;;
11197;SDS011;5655;48.744;9.162;2023-03-16T00:13:49;27.90;;;18.70;;
11197;SDS011;5655;48.744;9.162;2023-03-16T00:16:15;26.57;;;19.40;;
11197;SDS011;5655;48.744;9.162;2023-03-16T00:18:41;30.23;;;18.40;;
11197;SDS011;5655;48.744;9.162;2023-03-16T00:21:07;27.87;;;17.57;;
11197;SDS011;5655;48.744;9.162;2023-03-16T00:23:32;26.47;;;17.87;;
11197;SDS011;5655;48.744;9.162;2023-03-16T00:26:05;26.30;;;16.73;;
11197;SDS011;5655;48.744;9.162;2023-03-16T00:28:32;20.85;;;15.45;;
11197;SDS011;5655;48.744;9.162;2023-03-16T00:31:05;24.80;;;16.20;;
11197;SDS011;5655;48.744;9.162;2023-03-16T00:33:32;25.73;;;17.38;;
11197;SDS011;5655;48.744;9.162;2023-03-16T00:36:02;25.13;;;16.27;;
11197;SDS011;5655;48.744;9.162;2023-03-16T00:38:30;19.97;;;15.17;;
11197;SDS011;5655;48.744;9.162;2023-03-16T00:40:58;23.57;;;15.77;;
11197;SDS011;5655;48.744;9.162;2023-03-16T00:43:27;23.42;;;15.50;;
11197;SDS011;5655;48.744;9.162;2023-03-16T00:45:56;22.57;;;16.10;;
11197;SDS011;5655;48.744;9.162;2023-03-16T00:48:30;24.60;;;16.70;;
11197;SDS011;5655;48.744;9.162;2023-03-16T00:50:58;26.52;;;16.17;;
11197;SDS011;5655;48.744;9.162;2023-03-16T00:53:25;26.33;;;15.87;;
11197;SDS011;5655;48.744;9.162;2023-03-16T00:55:50;24.53;;;16.10;;
11197;SDS011;5655;48.744;9.162;2023-03-16T00:58:17;22.67;;;15.97;;
11197;SDS011;5655;48.744;9.162;2023-03-16T01:00:44;24.03;;;15.03;;
11197;SDS011;5655;48.744;9.162;2023-03-16T01:03:10;21.70;;;14.57;;
11197;SDS011;5655;48.744;9.162;2023-03-16T01:05:39;21.02;;;14.18;;
11197;SDS011;5655;48.744;9.162;2023-03-16T01:08:05;23.40;;;14.43;;
11197;SDS011;5655;48.744;9.162;2023-03-16T01:10:32;18.93;;;13.70;;
11197;SDS011;5655;48.744;9.162;2023-03-16T01:12:58;22.13;;;13.67;;
11197;SDS011;5655;48.744;9.162;2023-03-16T01:15:24;19.73;;;13.13;;
11197;SDS011;5655;48.744;9.162;2023-03-16T01:17:49;22.53;;;14.47;;
11197;SDS011;5655;48.744;9.162;2023-03-16T01:20:15;21.53;;;15.43;;
11197;SDS011;5655;48.744;9.162;2023-03-16T01:22:43;22.40;;;15.63;;
11197;SDS011;5655;48.744;9.162;2023-03-16T01:25:09;26.80;;;16.77;;
11197;SDS011;5655;48.744;9.162;2023-03-16T01:27:36;27.50;;;17.60;;
11197;SDS011;5655;48.744;9.162;2023-03-16T01:30:02;25.97;;;17.83;;
11197;SDS011;5655;48.744;9.162;2023-03-16T01:32:29;28.37;;;18.83;;
11197;SDS011;5655;48.744;9.162;2023-03-16T01:34:54;27.87;;;20.00;;
11197;SDS011;5655;48.744;9.162;2023-03-16T01:37:20;34.27;;;20.93;;
11197;SDS011;5655;48.744;9.162;2023-03-16T01:39:46;29.63;;;20.40;;
11197;SDS011;5655;48.744;9.162;2023-03-16T01:42:14;30.50;;;20.33;;
11197;SDS011;5655;48.744;9.162;2023-03-16T01:47:21;32.00;;;20.00;;
11197;SDS011;5655;48.744;9.162;2023-03-16T01:49:47;37.10;;;21.30;;
11197;SDS011;5655;48.744;9.162;2023-03-16T01:52:20;37.47;;;22.93;;
11197;SDS011;5655;48.744;9.162;2023-03-16T01:54:50;34.50;;;22.07;;
11197;SDS011;5655;48.744;9.162;2023-03-16T01:57:20;39.93;;;21.93;;
11197;SDS011;5655;48.744;9.162;2023-03-16T01:59:52;37.97;;;22.40;;
11197;SDS011;5655;48.744;9.162;2023-03-16T02:02:23;35.20;;;22.07;;
11197;SDS011;5655;48.744;9.162;2023-03-16T02:07:26;37.67;;;22.87;;
11197;SDS011;5655;48.744;9.162;2023-03-16T02:09:57;47.33;;;24.70;;
11197;SDS011;5655;48.744;9.162;2023-03-16T02:12:24;64.53;;;26.50;;
11197;SDS011;5655;48.744;9.162;2023-03-16T02:14:50;63.43;;;25.23;;
11197;SDS011;5655;48.744;9.162;2023-03-16T02:17:20;60.47;;;23.77;;
11197;SDS011;5655;48.744;9.162;2023-03-16T02:22:55;104.23;;;26.70;;
11197;SDS011;5655;48.744;9.162;2023-03-16T02:25:21;75.60;;;24.90;;
11197;SDS011;5655;48.744;9.162;2023-03-16T02:28:03;70.40;;;23.50;;
11197;SDS011;5655;48.744;9.162;2023-03-16T02:30:36;65.40;;;25.30;;
11197;SDS011;5655;48.744;9.162;2023-03-16T02:33:01;83.37;;;26.47;;
11197;SDS011;5655;48.744;9.162;2023-03-16T02:35:29;61.33;;;25.43;;
11197;SDS011;5655;48.744;9.162;2023-03-16T02:37:55;58.67;;;25.17;;
11197;SDS011;5655;48.744;9.162;2023-03-16T02:43:12;45.03;;;22.67;;
11197;SDS011;5655;48.744;9.162;2023-03-16T02:45:49;41.40;;;22.53;;
11197;SDS011;5655;48.744;9.162;2023-03-16T02:49:05;49.77;;;23.23;;
11197;SDS011;5655;48.744;9.162;2023-03-16T02:51:08;52.13;;;22.87;;
11197;SDS011;5655;48.744;9.162;2023-03-16T02:53:34;64.40;;;23.90;;
11197;SDS011;5655;48.744;9.162;2023-03-16T02:55:59;81.40;;;24.53;;
11197;SDS011;5655;48.744;9.162;2023-03-16T02:58:27;94.27;;;25.03;;
11197;SDS011;5655;48.744;9.162;2023-03-16T03:00:52;74.57;;;25.97;;
11197;SDS011;5655;48.744;9.162;2023-03-16T03:03:17;72.63;;;25.10;;
11197;SDS011;5655;48.744;9.162;2023-03-16T03:05:43;55.70;;;24.00;;
11197;SDS011;5655;48.744;9.162;2023-03-16T03:08:08;44.47;;;23.53;;
11197;SDS011;5655;48.744;9.162;2023-03-16T03:10:33;54.70;;;25.00;;
11197;SDS011;5655;48.744;9.162;2023-03-16T03:12:59;46.90;;;23.00;;
11197;SDS011;5655;48.744;9.162;2023-03-16T03:15:24;52.33;;;22.50;;
11197;SDS011;5655;48.744;9.162;2023-03-16T03:17:49;50.47;;;23.03;;
11197;SDS011;5655;48.744;9.162;2023-03-16T03:20:15;54.90;;;23.53;;
11197;SDS011;5655;48.744;9.162;2023-03-16T03:22:42;48.10;;;24.07;;
11197;SDS011;5655;48.744;9.162;2023-03-16T03:25:09;37.17;;;21.47;;
11197;SDS011;5655;48.744;9.162;2023-03-16T03:27:35;44.10;;;23.70;;
11197;SDS011;5655;48.744;9.162;2023-03-16T03:30:00;40.47;;;21.90;;
11197;SDS011;5655;48.744;9.162;2023-03-16T03:32:25;38.73;;;22.57;;
11197;SDS011;5655;48.744;9.162;2023-03-16T03:34:51;38.17;;;21.27;;
11197;SDS011;5655;48.744;9.162;2023-03-16T03:37:17;37.00;;;22.20;;
11197;SDS011;5655;48.744;9.162;2023-03-16T03:39:42;39.63;;;22.40;;
11197;SDS011;5655;48.744;9.162;2023-03-16T03:42:09;38.43;;;22.53;;
11197;SDS011;5655;48.744;9.162;2023-03-16T03:44:35;39.43;;;23.93;;
11197;SDS011;5655;48.744;9.162;2023-03-16T03:47:01;41.37;;;22.33;;
11197;SDS011;5655;48.744;9.162;2023-03-16T03:49:27;38.27;;;21.67;;
11197;SDS011;5655;48.744;9.162;2023-03-16T03:51:53;42.10;;;22.07;;
11197;SDS011;5655;48.744;9.162;2023-03-16T03:54:19;37.70;;;21.83;;
11197;SDS011;5655;48.744;9.162;2023-03-16T03:56:45;35.07;;;20.93;;
11197;SDS011;5655;48.744;9.162;2023-03-16T03:59:10;34.07;;;21.13;;
11197;SDS011;5655;48.744;9.162;2023-03-16T04:01:35;38.13;;;21.40;;
11197;SDS011;5655;48.744;9.162;2023-03-16T04:04:00;37.70;;;22.87;;
11197;SDS011;5655;48.744;9.162;2023-03-16T04:06:26;37.73;;;21.57;;
11197;SDS011;5655;48.744;9.162;2023-03-16T04:08:51;37.50;;;22.93;;
11197;SDS011;5655;48.744;9.162;2023-03-16T04:11:18;36.90;;;21.63;;
11197;SDS011;5655;48.744;9.162;2023-03-16T04:13:44;35.10;;;20.10;;
11197;SDS011;5655;48.744;9.162;2023-03-16T04:16:10;32.93;;;20.03;;
11197;SDS011;5655;48.744;9.162;2023-03-16T04:18:40;36.67;;;21.10;;
11197;SDS011;5655;48.744;9.162;2023-03-16T04:21:05;36.90;;;19.33;;
11197;SDS011;5655;48.744;9.162;2023-03-16T04:23:32;34.50;;;20.43;;
11197;SDS011;5655;48.744;9.162;2023-03-16T04:25:58;34.53;;;19.37;;
11197;SDS011;5655;48.744;9.162;2023-03-16T04:28:24;35.20;;;18.83;;
11197;SDS011;5655;48.744;9.162;2023-03-16T04:30:53;33.03;;;19.27;;
11197;SDS011;5655;48.744;9.162;2023-03-16T04:33:19;33.47;;;19.73;;
11197;SDS011;5655;48.744;9.162;2023-03-16T04:35:45;34.30;;;19.50;;
11197;SDS011;5655;48.744;9.162;2023-03-16T04:38:11;35.27;;;19.37;;
11197;SDS011;5655;48.744;9.162;2023-03-16T04:40:37;35.20;;;19.33;;
11197;SDS011;5655;48.744;9.162;2023-03-16T04:43:02;34.03;;;19.23;;
11197;SDS011;5655;48.744;9.162;2023-03-16T04:45:28;35.23;;;19.90;;
11197;SDS011;5655;48.744;9.162;2023-03-16T04:47:53;32.23;;;18.90;;
11197;SDS011;5655;48.744;9.162;2023-03-16T04:50:18;34.50;;;20.63;;
11197;SDS011;5655;48.744;9.162;2023-03-16T04:52:44;36.23;;;20.33;;
11197;SDS011;5655;48.744;9.162;2023-03-16T04:55:09;29.97;;;18.57;;
11197;SDS011;5655;48.744;9.162;2023-03-16T04:57:34;33.30;;;19.97;;
11197;SDS011;5655;48.744;9.162;2023-03-16T05:00:00;32.57;;;19.33;;
11197;SDS011;5655;48.744;9.162;2023-03-16T05:02:25;36.87;;;20.37;;
11197;SDS011;5655;48.744;9.162;2023-03-16T05:04:51;35.70;;;19.00;;
11197;SDS011;5655;48.744;9.162;2023-03-16T05:07:16;39.07;;;19.63;;
11197;SDS011;5655;48.744;9.162;2023-03-16T05:09:41;37.80;;;19.87;;
11197;SDS011;5655;48.744;9.162;2023-03-16T05:12:07;38.37;;;20.57;;
11197;SDS011;5655;48.744;9.162;2023-03-16T05:14:32;36.40;;;20.10;;
11197;SDS011;5655;48.744;9.162;2023-03-16T05:17:00;35.80;;;20.27;;
11197;SDS011;5655;48.744;9.162;2023-03-16T05:19:27;35.00;;;20.67;;
11197;SDS011;5655;48.744;9.162;2023-03-16T05:21:54;36.90;;;20.67;;
11197;SDS011;5655;48.744;9.162;2023-03-16T05:24:20;39.17;;;20.70;;
11197;SDS011;5655;48.744;9.162;2023-03-16T05:26:47;37.80;;;19.00;;
11197;SDS011;5655;48.744;9.162;2023-03-16T05:29:12;31.63;;;18.03;;
11197;SDS011;5655;48.744;9.162;2023-03-16T05:31:37;33.70;;;18.43;;
11197;SDS011;5655;48.744;9.162;2023-03-16T05:34:03;34.17;;;18.77;;
11197;SDS011;5655;48.744;9.162;2023-03-16T05:36:28;35.10;;;18.67;;
11197;SDS011;5655;48.744;9.162;2023-03-16T05:38:53;40.50;;;19.37;;
11197;SDS011;5655;48.744;9.162;2023-03-16T05:41:19;36.93;;;19.73;;
11197;SDS011;5655;48.744;9.162;2023-03-16T05:43:45;32.20;;;19.70;;
11197;SDS011;5655;48.744;9.162;2023-03-16T05:46:11;30.73;;;17.17;;
11197;SDS011;5655;48.744;9.162;2023-03-16T05:48:37;32.63;;;18.77;;
11197;SDS011;5655;48.744;9.162;2023-03-16T05:51:03;34.80;;;19.30;;
11197;SDS011;5655;48.744;9.162;2023-03-16T05:53:30;36.17;;;18.47;;
11197;SDS011;5655;48.744;9.162;2023-03-16T05:55:56;32.47;;;18.60;;
11197;SDS011;5655;48.744;9.162;2023-03-16T05:58:21;30.80;;;18.77;;
11197;SDS011;5655;48.744;9.162;2023-03-16T06:00:47;32.70;;;19.63;;
11197;SDS011;5655;48.744;9.162;2023-03-16T06:03:14;34.10;;;19.23;;
11197;SDS011;5655;48.744;9.162;2023-03-16T06:05:39;37.13;;;20.47;;
11197;SDS011;5655;48.744;9.162;2023-03-16T06:08:05;32.30;;;19.07;;
11197;SDS011;5655;48.744;9.162;2023-03-16T06:10:31;37.93;;;19.63;;
11197;SDS011;5655;48.744;9.162;2023-03-16T06:12:56;35.97;;;20.40;;
11197;SDS011;5655;48.744;9.162;2023-03-16T06:15:21;34.60;;;18.93;;
11197;SDS011;5655;48.744;9.162;2023-03-16T06:17:50;36.73;;;20.17;;
11197;SDS011;5655;48.744;9.162;2023-03-16T06:20:16;34.03;;;19.90;;
11197;SDS011;5655;48.744;9.162;2023-03-16T06:22:42;42.40;;;21.97;;
11197;SDS011;5655;48.744;9.162;2023-03-16T06:25:08;41.57;;;20.53;;
11197;SDS011;5655;48.744;9.162;2023-03-16T06:27:36;41.27;;;22.13;;
11197;SDS011;5655;48.744;9.162;2023-03-16T06:30:01;41.80;;;22.03;;
11197;SDS011;5655;48.744;9.162;2023-03-16T06:32:27;46.60;;;22.20;;
11197;SDS011;5655;48.744;9.162;2023-03-16T06:34:52;38.07;;;20.70;;
11197;SDS011;5655;48.744;9.162;2023-03-16T06:37:18;42.17;;;20.73;;
11197;SDS011;5655;48.744;9.162;2023-03-16T06:39:44;38.10;;;21.30;;
11197;SDS011;5655;48.744;9.162;2023-03-16T06:42:09;40.93;;;21.73;;
11197;SDS011;5655;48.744;9.162;2023-03-16T06:44:35;38.50;;;21.00;;
11197;SDS011;5655;48.744;9.162;2023-03-16T06:47:01;39.73;;;20.80;;
11197;SDS011;5655;48.744;9.162;2023-03-16T06:49:26;41.67;;;21.13;;
11197;SDS011;5655;48.744;9.162;2023-03-16T06:51:52;39.53;;;20.17;;
11197;SDS011;5655;48.744;9.162;2023-03-16T06:54:17;35.83;;;19.30;;
11197;SDS011;5655;48.744;9.162;2023-03-16T06:56:42;38.07;;;20.77;;
11197;SDS011;5655;48.744;9.162;2023-03-16T06:59:08;39.50;;;20.37;;
11197;SDS011;5655;48.744;9.162;2023-03-16T07:01:33;40.53;;;20.53;;
11197;SDS011;5655;48.744;9.162;2023-03-16T07:03:58;38.70;;;19.23;;
11197;SDS011;5655;48.744;9.162;2023-03-16T07:06:24;42.40;;;20.23;;
11197;SDS011;5655;48.744;9.162;2023-03-16T07:08:49;34.97;;;18.70;;
11197;SDS011;5655;48.744;9.162;2023-03-16T07:11:15;38.90;;;20.53;;
11197;SDS011;5655;48.744;9.162;2023-03-16T07:13:41;35.80;;;19.77;;
11197;SDS011;5655;48.744;9.162;2023-03-16T07:16:06;37.20;;;21.13;;
11197;SDS011;5655;48.744;9.162;2023-03-16T07:18:32;34.20;;;19.27;;
11197;SDS011;5655;48.744;9.162;2023-03-16T07:20:58;33.50;;;19.20;;
11197;SDS011;5655;48.744;9.162;2023-03-16T07:23:24;37.70;;;20.17;;
11197;SDS011;5655;48.744;9.162;2023-03-16T07:25:50;34.73;;;19.00;;
11197;SDS011;5655;48.744;9.162;2023-03-16T07:28:19;35.60;;;19.80;;
11197;SDS011;5655;48.744;9.162;2023-03-16T07:30:45;32.40;;;18.60;;
11197;SDS011;5655;48.744;9.162;2023-03-16T07:33:11;34.85;;;22.98;;
11197;SDS011;5655;48.744;9.162;2023-03-16T07:35:36;30.53;;;19.13;;
11197;SDS011;5655;48.744;9.162;2023-03-16T07:38:02;27.43;;;17.67;;
11197;SDS011;5655;48.744;9.162;2023-03-16T07:40:28;28.43;;;15.73;;
11197;SDS011;5655;48.744;9.162;2023-03-16T07:42:53;27.67;;;16.05;;
11197;SDS011;5655;48.744;9.162;2023-03-16T07:45:19;23.33;;;16.00;;
11197;SDS011;5655;48.744;9.162;2023-03-16T07:47:45;26.33;;;16.23;;
11197;SDS011;5655;48.744;9.162;2023-03-16T07:50:11;28.27;;;15.93;;
11197;SDS011;5655;48.744;9.162;2023-03-16T07:52:39;24.87;;;15.50;;
11197;SDS011;5655;48.744;9.162;2023-03-16T07:55:05;24.47;;;14.03;;
11197;SDS011;5655;48.744;9.162;2023-03-16T07:57:30;21.23;;;14.03;;
11197;SDS011;5655;48.744;9.162;2023-03-16T07:59:56;20.40;;;12.93;;
11197;SDS011;5655;48.744;9.162;2023-03-16T08:02:22;17.47;;;12.23;;
11197;SDS011;5655;48.744;9.162;2023-03-16T08:04:47;19.48;;;11.75;;
11197;SDS011;5655;48.744;9.162;2023-03-16T08:07:13;17.75;;;11.25;;
11197;SDS011;5655;48.744;9.162;2023-03-16T08:09:39;17.77;;;12.30;;
11197;SDS011;5655;48.744;9.162;2023-03-16T08:12:06;14.82;;;10.23;;
11197;SDS011;5655;48.744;9.162;2023-03-16T08:14:32;15.67;;;10.50;;
11197;SDS011;5655;48.744;9.162;2023-03-16T08:16:58;14.93;;;9.98;;
11197;SDS011;5655;48.744;9.162;2023-03-16T08:19:28;15.95;;;9.20;;
11197;SDS011;5655;48.744;9.162;2023-03-16T08:21:54;14.05;;;9.13;;
11197;SDS011;5655;48.744;9.162;2023-03-16T08:24:19;13.30;;;9.35;;
11197;SDS011;5655;48.744;9.162;2023-03-16T08:26:45;13.55;;;8.95;;
11197;SDS011;5655;48.744;9.162;2023-03-16T08:29:11;11.65;;;7.88;;
11197;SDS011;5655;48.744;9.162;2023-03-16T08:31:37;10.50;;;7.15;;
11197;SDS011;5655;48.744;9.162;2023-03-16T08:34:02;11.30;;;7.60;;
11197;SDS011;5655;48.744;9.162;2023-03-16T08:36:28;14.95;;;7.82;;
11197;SDS011;5655;48.744;9.162;2023-03-16T08:38:54;9.50;;;7.20;;
11197;SDS011;5655;48.744;9.162;2023-03-16T08:41:20;12.00;;;7.43;;
11197;SDS011;5655;48.744;9.162;2023-03-16T08:43:45;14.73;;;7.85;;
11197;SDS011;5655;48.744;9.162;2023-03-16T08:46:11;11.95;;;7.72;;
11197;SDS011;5655;48.744;9.162;2023-03-16T08:48:40;10.20;;;7.85;;
11197;SDS011;5655;48.744;9.162;2023-03-16T08:51:06;12.85;;;8.90;;
11197;SDS011;5655;48.744;9.162;2023-03-16T08:53:33;10.25;;;7.75;;
11197;SDS011;5655;48.744;9.162;2023-03-16T08:56:02;13.25;;;8.02;;
11197;SDS011;5655;48.744;9.162;2023-03-16T08:58:29;12.45;;;7.57;;
11197;SDS011;5655;48.744;9.162;2023-03-16T09:00:56;12.23;;;8.05;;
11197;SDS011;5655;48.744;9.162;2023-03-16T09:03:22;10.77;;;7.20;;
11197;SDS011;5655;48.744;9.162;2023-03-16T09:05:47;13.43;;;7.47;;
11197;SDS011;5655;48.744;9.162;2023-03-16T09:08:13;10.15;;;7.20;;
11197;SDS011;5655;48.744;9.162;2023-03-16T09:10:38;10.13;;;6.55;;
11197;SDS011;5655;48.744;9.162;2023-03-16T09:13:04;9.50;;;6.45;;
11197;SDS011;5655;48.744;9.162;2023-03-16T09:15:29;11.15;;;6.07;;
11197;SDS011;5655;48.744;9.162;2023-03-16T09:17:55;8.93;;;6.03;;
11197;SDS011;5655;48.744;9.162;2023-03-16T09:20:22;9.48;;;5.65;;
11197;SDS011;5655;48.744;9.162;2023-03-16T09:22:47;11.80;;;7.20;;
11197;SDS011;5655;48.744;9.162;2023-03-16T09:25:12;12.30;;;7.55;;
11197;SDS011;5655;48.744;9.162;2023-03-16T09:27:38;7.53;;;5.20;;
11197;SDS011;5655;48.744;9.162;2023-03-16T09:30:05;9.25;;;6.45;;
11197;SDS011;5655;48.744;9.162;2023-03-16T09:32:31;8.27;;;5.72;;
11197;SDS011;5655;48.744;9.162;2023-03-16T09:34:57;7.95;;;5.82;;
11197;SDS011;5655;48.744;9.162;2023-03-16T09:37:23;7.90;;;5.70;;
11197;SDS011;5655;48.744;9.162;2023-03-16T09:39:50;11.52;;;6.38;;
11197;SDS011;5655;48.744;9.162;2023-03-16T09:47:50;12.18;;;5.72;;
11197;SDS011;5655;48.744;9.162;2023-03-16T09:50:22;8.43;;;5.70;;
11197;SDS011;5655;48.744;9.162;2023-03-16T09:53:13;11.13;;;5.65;;
11197;SDS011;5655;48.744;9.162;2023-03-16T09:55:57;8.50;;;5.30;;
11197;SDS011;5655;48.744;9.162;2023-03-16T09:58:27;6.90;;;5.28;;
11197;SDS011;5655;48.744;9.162;2023-03-16T10:06:07;9.85;;;5.80;;
11197;SDS011;5655;48.744;9.162;2023-03-16T10:08:39;6.45;;;4.97;;
11197;SDS011;5655;48.744;9.162;2023-03-16T10:11:17;7.45;;;5.35;;
11197;SDS011;5655;48.744;9.162;2023-03-16T10:13:50;6.70;;;5.07;;
11197;SDS011;5655;48.744;9.162;2023-03-16T10:16:24;9.52;;;5.57;;
11197;SDS011;5655;48.744;9.162;2023-03-16T10:19:04;5.95;;;4.75;;
11197;SDS011;5655;48.744;9.162;2023-03-16T10:21:37;9.55;;;5.93;;
11197;SDS011;5655;48.744;9.162;2023-03-16T10:24:10;16.42;;;6.00;;
11197;SDS011;5655;48.744;9.162;2023-03-16T10:26:58;10.07;;;5.38;;
11197;SDS011;5655;48.744;9.162;2023-03-16T10:29:29;8.85;;;5.47;;
11197;SDS011;5655;48.744;9.162;2023-03-16T10:32:00;6.88;;;4.75;;
11197;SDS011;5655;48.744;9.162;2023-03-16T10:34:35;10.57;;;5.03;;
11197;SDS011;5655;48.744;9.162;2023-03-16T10:37:01;7.57;;;4.88;;
11197;SDS011;5655;48.744;9.162;2023-03-16T10:39:34;6.97;;;4.70;;
11197;SDS011;5655;48.744;9.162;2023-03-16T10:42:01;5.32;;;4.03;;
11197;SDS011;5655;48.744;9.162;2023-03-16T10:44:27;6.47;;;4.22;;
11197;SDS011;5655;48.744;9.162;2023-03-16T10:46:58;6.40;;;4.80;;
11197;SDS011;5655;48.744;9.162;2023-03-16T10:49:34;9.30;;;4.22;;
11197;SDS011;5655;48.744;9.162;2023-03-16T10:52:05;10.18;;;4.20;;
11197;SDS011;5655;48.744;9.162;2023-03-16T10:54:52;5.95;;;3.83;;
11197;SDS011;5655;48.744;9.162;2023-03-16T10:57:30;5.68;;;3.90;;
11197;SDS011;5655;48.744;9.162;2023-03-16T11:02:38;4.30;;;3.40;;
11197;SDS011;5655;48.744;9.162;2023-03-16T11:05:18;6.63;;;4.35;;
11197;SDS011;5655;48.744;9.162;2023-03-16T11:08:00;5.15;;;3.20;;
11197;SDS011;5655;48.744;9.162;2023-03-16T11:10:35;5.30;;;3.22;;
11197;SDS011;5655;48.744;9.162;2023-03-16T11:13:08;7.97;;;3.97;;
11197;SDS011;5655;48.744;9.162;2023-03-16T11:15:39;4.50;;;3.15;;
11197;SDS011;5655;48.744;9.162;2023-03-16T11:18:22;5.30;;;3.20;;
11197;SDS011;5655;48.744;9.162;2023-03-16T11:20:54;5.50;;;3.40;;
11197;SDS011;5655;48.744;9.162;2023-03-16T11:23:27;3.92;;;2.90;;
11197;SDS011;5655;48.744;9.162;2023-03-16T11:25:58;5.85;;;3.08;;
11197;SDS011;5655;48.744;9.162;2023-03-16T11:31:15;6.85;;;3.22;;
11197;SDS011;5655;48.744;9.162;2023-03-16T11:33:46;5.35;;;3.03;;
11197;SDS011;5655;48.744;9.162;2023-03-16T11:55:19;2.60;;;2.03;;
11197;SDS011;5655;48.744;9.162;2023-03-16T12:06:39;7.40;;;2.53;;
11197;SDS011;5655;48.744;9.162;2023-03-16T12:12:29;5.95;;;2.30;;
11197;SDS011;5655;48.744;9.162;2023-03-16T12:17:45;5.03;;;2.50;;
11197;SDS011;5655;48.744;9.162;2023-03-16T12:20:16;4.22;;;2.55;;
11197;SDS011;5655;48.744;9.162;2023-03-16T12:23:04;5.80;;;2.78;;
11197;SDS011;5655;48.744;9.162;2023-03-16T12:25:35;3.65;;;2.22;;
11197;SDS011;5655;48.744;9.162;2023-03-16T12:28:04;10.75;;;2.88;;
11197;SDS011;5655;48.744;9.162;2023-03-16T12:41:15;3.92;;;2.42;;
11197;SDS011;5655;48.744;9.162;2023-03-16T12:49:09;20.25;;;3.58;;
11197;SDS011;5655;48.744;9.162;2023-03-16T12:51:38;5.90;;;3.22;;
11197;SDS011;5655;48.744;9.162;2023-03-16T12:54:05;2.55;;;2.17;;
11197;SDS011;5655;48.744;9.162;2023-03-16T12:56:43;3.92;;;2.20;;
11197;SDS011;5655;48.744;9.162;2023-03-16T12:59:17;4.25;;;2.33;;
11197;SDS011;5655;48.744;9.162;2023-03-16T13:01:47;2.28;;;2.08;;
11197;SDS011;5655;48.744;9.162;2023-03-16T13:04:19;3.42;;;2.35;;
11197;SDS011;5655;48.744;9.162;2023-03-16T13:06:50;2.63;;;1.88;;
11197;SDS011;5655;48.744;9.162;2023-03-16T13:09:26;3.05;;;1.60;;
11197;SDS011;5655;48.744;9.162;2023-03-16T13:11:55;2.58;;;1.75;;
11197;SDS011;5655;48.744;9.162;2023-03-16T13:14:35;2.13;;;1.73;;
11197;SDS011;5655;48.744;9.162;2023-03-16T13:17:03;2.75;;;1.67;;
11197;SDS011;5655;48.744;9.162;2023-03-16T13:19:31;3.33;;;2.00;;
11197;SDS011;5655;48.744;9.162;2023-03-16T13:22:03;3.70;;;2.05;;
11197;SDS011;5655;48.744;9.162;2023-03-16T13:24:51;3.63;;;2.20;;
11197;SDS011;5655;48.744;9.162;2023-03-16T13:27:28;3.25;;;2.08;;
11197;SDS011;5655;48.744;9.162;2023-03-16T13:29:59;2.63;;;1.80;;
11197;SDS011;5655;48.744;9.162;2023-03-16T13:32:29;2.30;;;1.80;;
11197;SDS011;5655;48.744;9.162;2023-03-16T13:34:57;2.30;;;1.67;;
11197;SDS011;5655;48.744;9.162;2023-03-16T13:37:25;4.78;;;1.90;;
11197;SDS011;5655;48.744;9.162;2023-03-16T13:39:56;4.35;;;1.70;;
11197;SDS011;5655;48.744;9.162;2023-03-16T13:42:24;3.05;;;1.88;;
11197;SDS011;5655;48.744;9.162;2023-03-16T13:44:53;3.72;;;1.70;;
11197;SDS011;5655;48.744;9.162;2023-03-16T13:47:21;2.03;;;1.67;;
11197;SDS011;5655;48.744;9.162;2023-03-16T13:49:54;3.38;;;2.30;;
11197;SDS011;5655;48.744;9.162;2023-03-16T13:52:26;2.55;;;1.60;;
11197;SDS011;5655;48.744;9.162;2023-03-16T13:54:54;3.15;;;1.55;;
11197;SDS011;5655;48.744;9.162;2023-03-16T13:57:22;4.22;;;1.95;;
11197;SDS011;5655;48.744;9.162;2023-03-16T13:59:50;2.40;;;1.58;;
11197;SDS011;5655;48.744;9.162;2023-03-16T14:02:23;4.13;;;1.73;;
11197;SDS011;5655;48.744;9.162;2023-03-16T14:04:48;3.05;;;1.70;;
11197;SDS011;5655;48.744;9.162;2023-03-16T14:07:15;2.50;;;1.52;;
11197;SDS011;5655;48.744;9.162;2023-03-16T14:09:42;5.45;;;1.75;;
11197;SDS011;5655;48.744;9.162;2023-03-16T14:12:14;2.28;;;1.75;;
11197;SDS011;5655;48.744;9.162;2023-03-16T14:14:41;2.38;;;1.55;;
11197;SDS011;5655;48.744;9.162;2023-03-16T14:17:18;5.28;;;1.67;;
11197;SDS011;5655;48.744;9.162;2023-03-16T14:19:51;2.58;;;1.50;;
11197;SDS011;5655;48.744;9.162;2023-03-16T14:22:22;2.75;;;1.90;;
11197;SDS011;5655;48.744;9.162;2023-03-16T14:24:55;3.58;;;1.77;;
11197;SDS011;5655;48.744;9.162;2023-03-16T14:29:54;2.30;;;1.70;;
11197;SDS011;5655;48.744;9.162;2023-03-16T14:32:26;2.75;;;1.75;;
11197;SDS011;5655;48.744;9.162;2023-03-16T14:34:59;4.20;;;2.38;;
11197;SDS011;5655;48.744;9.162;2023-03-16T14:37:35;2.33;;;1.63;;
11197;SDS011;5655;48.744;9.162;2023-03-16T14:40:02;1.70;;;1.50;;
11197;SDS011;5655;48.744;9.162;2023-03-16T14:42:29;2.70;;;1.67;;
11197;SDS011;5655;48.744;9.162;2023-03-16T14:44:56;2.30;;;1.77;;
11197;SDS011;5655;48.744;9.162;2023-03-16T14:47:24;3.10;;;1.85;;
11197;SDS011;5655;48.744;9.162;2023-03-16T14:49:53;2.95;;;1.90;;
11197;SDS011;5655;48.744;9.162;2023-03-16T14:52:23;3.38;;;1.42;;
11197;SDS011;5655;48.744;9.162;2023-03-16T14:54:51;3.30;;;1.52;;
11197;SDS011;5655;48.744;9.162;2023-03-16T14:57:19;2.42;;;1.40;;
11197;SDS011;5655;48.744;9.162;2023-03-16T14:59:45;2.38;;;1.33;;
11197;SDS011;5655;48.744;9.162;2023-03-16T15:02:18;2.45;;;1.30;;
11197;SDS011;5655;48.744;9.162;2023-03-16T15:04:47;2.03;;;1.60;;
11197;SDS011;5655;48.744;9.162;2023-03-16T15:07:26;3.70;;;1.67;;
11197;SDS011;5655;48.744;9.162;2023-03-16T15:10:11;2.20;;;1.60;;
11197;SDS011;5655;48.744;9.162;2023-03-16T15:12:41;1.80;;;1.27;;
11197;SDS011;5655;48.744;9.162;2023-03-16T15:15:15;2.47;;;1.63;;
11197;SDS011;5655;48.744;9.162;2023-03-16T15:17:46;2.97;;;1.45;;
11197;SDS011;5655;48.744;9.162;2023-03-16T15:20:15;4.45;;;1.58;;
11197;SDS011;5655;48.744;9.162;2023-03-16T15:22:42;2.17;;;1.60;;
11197;SDS011;5655;48.744;9.162;2023-03-16T15:25:19;3.88;;;1.35;;
11197;SDS011;5655;48.744;9.162;2023-03-16T15:27:48;3.40;;;1.45;;
11197;SDS011;5655;48.744;9.162;2023-03-16T15:30:21;3.20;;;1.30;;
11197;SDS011;5655;48.744;9.162;2023-03-16T15:32:48;2.53;;;1.60;;
11197;SDS011;5655;48.744;9.162;2023-03-16T15:35:13;4.95;;;1.60;;
11197;SDS011;5655;48.744;9.162;2023-03-16T15:37:39;2.63;;;1.33;;
11197;SDS011;5655;48.744;9.162;2023-03-16T15:40:21;3.05;;;1.70;;
11197;SDS011;5655;48.744;9.162;2023-03-16T15:42:49;1.98;;;1.30;;
11197;SDS011;5655;48.744;9.162;2023-03-16T15:45:16;2.60;;;1.60;;
11197;SDS011;5655;48.744;9.162;2023-03-16T15:47:44;3.35;;;1.70;;
11197;SDS011;5655;48.744;9.162;2023-03-16T15:50:11;3.22;;;1.52;;
11197;SDS011;5655;48.744;9.162;2023-03-16T15:52:39;1.73;;;1.50;;
11197;SDS011;5655;48.744;9.162;2023-03-16T15:55:20;2.70;;;1.75;;
11197;SDS011;5655;48.744;9.162;2023-03-16T15:57:47;2.83;;;1.60;;
11197;SDS011;5655;48.744;9.162;2023-03-16T16:02:49;3.42;;;1.40;;
11197;SDS011;5655;48.744;9.162;2023-03-16T16:05:14;3.17;;;1.80;;
11197;SDS011;5655;48.744;9.162;2023-03-16T16:07:40;2.45;;;1.70;;
11197;SDS011;5655;48.744;9.162;2023-03-16T16:10:05;3.80;;;2.15;;
11197;SDS011;5655;48.744;9.162;2023-03-16T16:12:31;3.22;;;1.92;;
11197;SDS011;5655;48.744;9.162;2023-03-16T16:14:57;3.92;;;2.10;;